Flight Track Log - Related Links

Times and Time Zones

All times are in EDT time to prevent confusion due to time zone crossing. See the RPA3143 flight status page for this flight to view local times or setup timezone preferences in your user account.

Time Position Orientation Groundspeed Altitude Reporting Facility
EDT Latitude Longitude Course Direction KTS MPH feet Rate Location/Type
Mon 08:06:01 AM 38.8833 -77.0500 311° West 162 186 1,200  Level Potomac TRACON
Mon 08:06:55 AM 38.9167 -77.1000 311° West 222 255 2,700 2,158 Climbing Potomac TRACON
Mon 08:07:55 AM 38.9667 -77.1500 322° Northwest 256 295 5,300 2,550 Climbing Potomac TRACON
Mon 08:08:55 AM 38.9833 -77.2333 284° West 272 313 7,800 2,450 Climbing Potomac TRACON
Mon 08:09:55 AM 38.9000 -77.2833 205° Southwest 291 335 10,200 2,100 Climbing Potomac TRACON
Mon 08:10:55 AM 38.8333 -77.3167 201° Southwest 323 372 12,000 1,856 Climbing Potomac TRACON
Mon 08:13:09 AM 38.6514 -77.4258 205° Southwest 322 371 16,200 1,875 Climbing Washington Center
Mon 08:14:07 AM 38.5631 -77.4769 204° Southwest 335 386 18,000 1,576 Climbing Washington Center
Mon 08:15:07 AM 38.4706 -77.5275 203° Southwest 347 399 19,300 1,377 Climbing Washington Center
Mon 08:16:09 AM 38.3817 -77.5914 209° Southwest 360 414 20,800 1,400 Climbing Washington Center
Mon 08:17:07 AM 38.3197 -77.6903 231° Southwest 360 414 22,100 1,361 Climbing Washington Center
Mon 08:18:08 AM 38.2531 -77.7917 230° Southwest 369 425 23,500 1,279 Climbing Washington Center
Mon 08:19:09 AM 38.1844 -77.8925 229° Southwest 381 438 24,700 1,169 Climbing Washington Center
Mon 08:20:06 AM 38.1242 -78.0017 235° Southwest 386 444 25,800 1,119 Climbing Washington Center
Mon 08:21:07 AM 38.0717 -78.1211 241° Southwest 386 444 26,900 1,230 Climbing Washington Center
Mon 08:22:08 AM 38.0083 -78.2456 237° Southwest 391 450 28,300 1,279 Climbing Washington Center
Mon 08:23:09 AM 37.9314 -78.3325 222° Southwest 398 458 29,500 1,008 Climbing Washington Center
Mon 08:24:07 AM 37.8497 -78.4294 223° Southwest 403 464 30,300 908 Climbing Washington Center
Mon 08:25:08 AM 37.7517 -78.5231 217° Southwest 417 480 31,300 992 Climbing Washington Center
Mon 08:26:08 AM 37.6536 -78.6083 215° Southwest 430 495 32,300 1,140 Climbing Washington Center
Mon 08:27:09 AM 37.5447 -78.7036 215° Southwest 438 504 33,600 992 Climbing Washington Center
Mon 08:28:09 AM 37.4444 -78.7858 213° Southwest 438 504 34,300 821 Climbing Washington Center
Mon 08:29:06 AM 37.3442 -78.8703 214° Southwest 438 504 35,200 864 Climbing Washington Center
Mon 08:30:07 AM 37.2458 -78.9575 215° Southwest 438 504 36,000 393 Climbing Washington Center
Mon 08:31:08 AM 37.1475 -79.0417 214° Southwest 433 498 36,000  Level Washington Center
Mon 08:32:09 AM 37.0597 -79.1186 215° Southwest 433 498 36,000  Level Washington Center
Mon 08:33:07 AM 36.9611 -79.2025 214° Southwest 433 498 36,000  Level Washington Center
Mon 08:34:08 AM 36.8650 -79.2836 214° Southwest 433 498 36,000  Level Washington Center
Mon 08:35:08 AM 36.7683 -79.3672 215° Southwest 433 498 36,000  Level Washington Center
Mon 08:36:08 AM 36.6697 -79.4478 213° Southwest 433 498 36,000  Level Washington Center
Mon 08:37:09 AM 36.5667 -79.5383 215° Southwest 433 498 36,000  Level Washington Center
Mon 08:38:07 AM 36.4700 -79.6214 215° Southwest 428 493 36,000  Level Washington Center
Mon 08:38:56 AM 36.3878 -79.6853 212° Southwest 434 499 36,000  Level Atlanta Center
Mon 08:39:56 AM 36.2925 -79.7653 214° Southwest 434 499 36,000  Level Atlanta Center
Mon 08:40:56 AM 36.2033 -79.8419 215° Southwest 434 499 36,000  Level Atlanta Center
Mon 08:41:56 AM 36.1039 -79.9217 213° Southwest 433 498 36,000  Level Atlanta Center
Mon 08:42:56 AM 36.0000 -79.9964 210° Southwest 433 498 36,000  Level Atlanta Center
Mon 08:43:56 AM 35.8769 -80.0589 202° Southwest 433 498 36,000  Level Atlanta Center
Mon 08:44:56 AM 35.7642 -80.1181 203° Southwest 439 505 36,000  Level Atlanta Center
Mon 08:45:56 AM 35.6636 -80.1689 202° Southwest 439 505 36,000  Level Atlanta Center
Mon 08:46:56 AM 35.5506 -80.2253 202° Southwest 439 505 36,000  Level Atlanta Center
Mon 08:47:56 AM 35.4314 -80.2869 203° Southwest 439 505 36,000  Level Atlanta Center
Mon 08:48:56 AM 35.3183 -80.3428 202° Southwest 439 505 36,000  Level Atlanta Center
Mon 08:51:22 AM 35.0564 -80.4733 202° Southwest 445 512 36,000  Level Jacksonville Center
Mon 08:52:22 AM 34.9469 -80.5272 202° Southwest 437 503 36,000  Level Jacksonville Center
Mon 08:53:22 AM 34.8375 -80.5808 202° Southwest 430 495 36,000  Level Jacksonville Center
Mon 08:54:22 AM 34.7319 -80.6317 202° Southwest 419 482 36,000  Level Jacksonville Center
Mon 08:55:22 AM 34.6222 -80.6825 201° Southwest 419 482 36,000  Level Jacksonville Center
Mon 08:56:22 AM 34.4853 -80.7086 189° South 443 510 36,000  Level Jacksonville Center
Mon 08:57:22 AM 34.3622 -80.7244 186° South 443 510 36,000  Level Jacksonville Center
Mon 08:58:22 AM 34.2642 -80.7242 180° South 431 496 36,000  Level Jacksonville Center
Mon 08:59:22 AM 34.1456 -80.7347 184° South 424 488 36,000  Level Jacksonville Center
Mon 09:00:22 AM 34.0289 -80.7450 184° South 424 488 36,000  Level Jacksonville Center
Mon 09:01:22 AM 33.9100 -80.7531 183° South 424 488 36,000  Level Jacksonville Center
Mon 09:02:22 AM 33.7872 -80.7636 184° South 430 495 36,000  Level Jacksonville Center
Mon 09:03:22 AM 33.6706 -80.7739 184° South 430 495 36,000  Level Jacksonville Center
Mon 09:04:22 AM 33.5517 -80.7817 183° South 430 495 36,000  Level Jacksonville Center
Mon 09:05:22 AM 33.4328 -80.7919 184° South 430 495 36,000  Level Jacksonville Center
Mon 09:06:22 AM 33.3119 -80.8022 184° South 430 495 36,000  Level Jacksonville Center
Mon 09:07:22 AM 33.1931 -80.8125 184° South 430 495 36,000  Level Jacksonville Center
Mon 09:08:22 AM 33.0578 -80.8231 184° South 435 501 36,000  Level Jacksonville Center
Mon 09:09:22 AM 32.9389 -80.8333 184° South 435 501 36,000  Level Jacksonville Center
Mon 09:10:22 AM 32.8200 -80.8408 183° South 441 507 36,000  Level Jacksonville Center
Mon 09:11:22 AM 32.6969 -80.8511 184° South 441 507 36,000  Level Jacksonville Center
Mon 09:12:22 AM 32.5761 -80.8611 184° South 437 503 36,000  Level Jacksonville Center
Mon 09:13:22 AM 32.4572 -80.8711 184° South 437 503 36,000  Level Jacksonville Center
Mon 09:14:22 AM 32.3406 -80.8811 184° South 437 503 36,000  Level Jacksonville Center
Mon 09:15:22 AM 32.2194 -80.8889 183° South 440 506 36,000  Level Jacksonville Center
Mon 09:16:22 AM 32.0922 -80.8964 183° South 440 506 36,000  Level Jacksonville Center
Mon 09:17:22 AM 31.9694 -80.9089 185° South 440 506 36,000  Level Jacksonville Center
Mon 09:18:22 AM 31.8608 -80.9161 183° South 440 506 36,000  Level Jacksonville Center
Mon 09:19:22 AM 31.7253 -80.9264 184° South 440 506 36,000  Level Jacksonville Center
Mon 09:20:22 AM 31.6022 -80.9364 184° South 439 505 36,000  Level Jacksonville Center
Mon 09:21:22 AM 31.4939 -80.9458 184° South 439 505 36,000  Level Jacksonville Center
Mon 09:22:22 AM 31.3625 -80.9536 183° South 439 505 36,000  Level Jacksonville Center
Mon 09:23:22 AM 31.2478 -80.9631 184° South 446 513 36,000 -450 Level Jacksonville Center
Mon 09:24:22 AM 31.1228 -80.9778 186° South 446 513 35,100 -1,050 Descending Jacksonville Center
Mon 09:25:22 AM 30.9997 -80.9853 183° South 446 513 33,900 -550 Descending Jacksonville Center
Mon 09:26:22 AM 30.8744 -80.9950 184° South 451 519 34,000 50 Climbing Jacksonville Center
Mon 09:27:22 AM 30.7494 -81.0072 185° South 451 519 34,000  Level Jacksonville Center
Mon 09:28:22 AM 30.6222 -81.0144 183° South 451 519 34,000  Level Jacksonville Center
Mon 09:29:22 AM 30.4950 -81.0219 183° South 461 531 34,000  Level Jacksonville Center
Mon 09:30:22 AM 30.3553 -81.0367 185° South 461 531 34,000 -750 Level Jacksonville Center
Mon 09:31:22 AM 30.2322 -81.0436 183° South 456 525 32,500 -1,700 Descending Jacksonville Center
Mon 09:32:22 AM 30.1031 -81.0533 184° South 456 525 30,600 -1,950 Descending Jacksonville Center
Mon 09:33:22 AM 29.9778 -81.0631 184° South 462 532 28,600 -2,050 Descending Jacksonville Center
Mon 09:34:22 AM 29.8506 -81.0750 185° South 462 532 26,500 -2,150 Descending Jacksonville Center
Mon 09:35:22 AM 29.7256 -81.0822 183° South 462 532 24,300 -2,200 Descending Jacksonville Center
Mon 09:36:22 AM 29.6067 -81.0892 183° South 448 516 22,100 -2,100 Descending Jacksonville Center
Mon 09:37:22 AM 29.4917 -81.0889 180° South 435 501 20,100 5,950 Descending Jacksonville Center
Mon 09:38:22 AM 29.3811 -81.0933 182° South 413 475 34,000 -1,900 Climbing Jacksonville Center
Mon 09:39:22 AM 29.2725 -81.0881 178° South 407 468 16,300 -9,750 Descending Jacksonville Center
Mon 09:40:22 AM 29.1661 -81.0900 181° South 396 456 14,500 -1,800 Descending Jacksonville Center
Mon 09:41:22 AM 29.0639 -81.0942 182° South 380 437 12,700 -1,200 Descending Jacksonville Center
Mon 09:42:22 AM 28.9639 -81.0936 180° South 369 425 12,100 -600 Descending Jacksonville Center
Mon 09:43:22 AM 28.8658 -81.1003 183° South 363 418 11,500 -786 Descending Jacksonville Center
Mon 09:43:46 AM 28.8167 -81.1000 180° South 361 415 11,000 -1,000 Descending Orlando TRACON
Mon 09:44:46 AM 28.7167 -81.1333 196° South 351 404 10,100 -625 Descending Orlando TRACON
Mon 09:45:22 AM 28.6722 -81.1464 194° South 363 418 10,000 -125 Descending Jacksonville Center
Mon 09:46:22 AM 28.5831 -81.1764 196° South 353 406 9,900 -308 Descending Jacksonville Center
Mon 09:46:40 AM 28.5500 -81.1833 190° South 283 326 9,600 -1,500 Descending Orlando TRACON
Mon 09:47:46 AM 28.4667 -81.1833 180° South 275 316 7,800 -1,701 Descending Orlando TRACON
Mon 09:48:47 AM 28.4000 -81.1833 180° South 269 310 6,000 -1,748 Descending Orlando TRACON
Mon 09:49:53 AM 28.3167 -81.1833 180° South 267 307 4,100 -1,727 Descending Orlando TRACON

Login

Don't have an account? Register now (free) for customized features, flight alerts, and more!